createdAt,value
2018-02-02T00:00:51.803Z,23.28
2018-02-02T00:01:51.825Z,23.32
2018-02-02T00:02:51.737Z,23.29
2018-02-02T00:03:51.706Z,23.36
2018-02-02T00:04:51.790Z,23.32
2018-02-02T00:05:51.636Z,23.29
2018-02-02T00:06:51.604Z,23.26
2018-02-02T00:07:51.565Z,23.32
2018-02-02T00:08:51.538Z,23.34
2018-02-02T00:09:51.498Z,23.29
2018-02-02T00:10:51.496Z,23.32
2018-02-02T00:11:51.432Z,23.28
2018-02-02T00:12:51.401Z,23.25
2018-02-02T00:13:51.365Z,23.34
2018-02-02T00:14:51.334Z,23.32
2018-02-02T00:15:51.320Z,23.33
2018-02-02T00:16:51.263Z,23.23
2018-02-02T00:17:51.228Z,23.33
2018-02-02T00:18:51.198Z,23.33
2018-02-02T00:19:51.160Z,23.33
2018-02-02T00:20:51.128Z,23.28
2018-02-02T00:21:51.122Z,23.32
2018-02-02T00:22:51.064Z,23.29
2018-02-02T00:23:51.026Z,23.39
2018-02-02T00:24:50.995Z,23.26
2018-02-02T00:25:50.980Z,23.25
2018-02-02T00:26:50.923Z,23.28
2018-02-02T00:27:50.893Z,23.26
2018-02-02T00:28:50.857Z,23.25
2018-02-02T00:29:50.823Z,23.21
2018-02-02T00:30:50.792Z,23.28
2018-02-02T00:31:50.791Z,23.28
2018-02-02T00:32:50.724Z,23.39
2018-02-02T00:33:50.691Z,23.29
2018-02-02T00:34:50.683Z,23.28
2018-02-02T00:35:50.622Z,23.28
2018-02-02T00:36:50.585Z,23.33
2018-02-02T00:37:50.557Z,23.28
2018-02-02T00:38:50.518Z,23.28
2018-02-02T00:39:50.514Z,23.29
2018-02-02T00:40:50.452Z,23.28
2018-02-02T00:41:50.415Z,23.23
2018-02-02T00:42:50.387Z,23.26
2018-02-02T00:43:50.348Z,23.28
2018-02-02T00:44:50.321Z,23.25
2018-02-02T00:45:50.311Z,23.23
2018-02-02T00:46:50.247Z,23.21
2018-02-02T00:47:50.220Z,23.26
2018-02-02T00:48:50.180Z,23.21
2018-02-02T00:49:50.147Z,23.25
2018-02-02T00:50:50.146Z,23.23
2018-02-02T00:51:50.077Z,23.26
2018-02-02T00:52:50.045Z,23.28
2018-02-02T00:53:50.009Z,23.28
2018-02-02T00:54:49.977Z,23.25
2018-02-02T00:55:49.975Z,23.25
2018-02-02T00:56:49.913Z,23.25
2018-02-02T00:57:49.875Z,23.25
2018-02-02T00:58:49.844Z,23.23
2018-02-02T00:59:49.811Z,23.25
2018-02-02T01:00:49.807Z,23.21
2018-02-02T01:01:49.744Z,23.29
2018-02-02T01:02:49.708Z,23.25
2018-02-02T01:03:49.670Z,23.18
2018-02-02T01:04:49.643Z,23.18
2018-02-02T01:05:49.630Z,23.21
2018-02-02T01:06:49.570Z,23.28
2018-02-02T01:07:49.535Z,23.28
2018-02-02T01:08:49.504Z,23.21
2018-02-02T01:09:49.467Z,23.20
2018-02-02T01:10:49.474Z,23.26
2018-02-02T01:11:49.402Z,23.20
2018-02-02T01:12:49.371Z,23.26
2018-02-02T01:13:49.336Z,23.21
2018-02-02T01:14:49.299Z,23.17
2018-02-02T01:15:49.270Z,23.25
2018-02-02T01:16:49.260Z,23.21
2018-02-02T01:17:49.198Z,23.20
2018-02-02T01:18:49.178Z,23.21
2018-02-02T01:19:49.134Z,23.20
2018-02-02T01:20:49.099Z,23.23
2018-02-02T01:21:49.092Z,23.23
2018-02-02T01:22:49.026Z,23.16
2018-02-02T01:23:49.000Z,23.18
2018-02-02T01:24:48.958Z,23.17
2018-02-02T01:25:48.927Z,23.17
2018-02-02T01:26:48.919Z,23.20
2018-02-02T01:27:48.861Z,23.25
2018-02-02T01:28:48.825Z,23.21
2018-02-02T01:29:48.789Z,23.23
2018-02-02T01:30:48.761Z,23.21
2018-02-02T01:31:48.751Z,23.14
2018-02-02T01:32:48.689Z,23.20
2018-02-02T01:33:48.658Z,23.23
2018-02-02T01:34:48.621Z,23.14
2018-02-02T01:35:48.590Z,23.21
2018-02-02T01:36:48.554Z,23.14
2018-02-02T01:37:48.550Z,23.21
2018-02-02T01:38:48.487Z,23.18
2018-02-02T01:39:48.451Z,23.18
2018-02-02T01:40:48.422Z,23.20
2018-02-02T01:41:48.414Z,23.18
2018-02-02T01:42:48.354Z,23.23
2018-02-02T01:43:48.319Z,23.16
2018-02-02T01:44:48.284Z,23.16
2018-02-02T01:45:48.255Z,23.14
2018-02-02T01:46:48.246Z,23.14
2018-02-02T01:47:48.181Z,23.21
2018-02-02T01:48:48.150Z,23.18
2018-02-02T01:49:48.116Z,23.18
2018-02-02T01:50:48.082Z,23.18
2018-02-02T01:51:48.072Z,23.20
2018-02-02T01:52:48.010Z,23.17
2018-02-02T01:53:47.976Z,23.17
2018-02-02T01:54:47.948Z,23.18
2018-02-02T01:55:47.914Z,23.14
2018-02-02T01:56:47.874Z,23.11
2018-02-02T01:57:47.868Z,23.11
2018-02-02T01:58:47.810Z,23.16
2018-02-02T01:59:47.776Z,23.13
2018-02-02T02:00:47.740Z,23.10
2018-02-02T02:01:47.708Z,23.14
2018-02-02T02:02:47.675Z,23.11
2018-02-02T02:03:47.657Z,23.16
2018-02-02T02:04:47.608Z,23.14
2018-02-02T02:05:47.567Z,23.11
2018-02-02T02:06:47.539Z,23.20
2018-02-02T02:07:47.510Z,23.17
2018-02-02T02:08:47.472Z,23.13
2018-02-02T02:09:47.468Z,23.17
2018-02-02T02:10:47.400Z,23.13
2018-02-02T02:11:47.365Z,23.13
2018-02-02T02:12:47.365Z,23.16
2018-02-02T02:13:47.300Z,23.10
2018-02-02T02:14:47.265Z,23.14
2018-02-02T02:15:47.231Z,23.11
2018-02-02T02:16:47.199Z,23.13
2018-02-02T02:17:47.166Z,23.13
2018-02-02T02:18:47.163Z,23.11
2018-02-02T02:19:47.095Z,23.13
2018-02-02T02:20:47.060Z,23.14
2018-02-02T02:21:47.026Z,23.13
2018-02-02T02:22:47.035Z,23.10
2018-02-02T02:23:46.969Z,23.14
2018-02-02T02:24:46.923Z,23.11
2018-02-02T02:25:46.895Z,23.14
2018-02-02T02:26:46.861Z,23.10
2018-02-02T02:27:46.827Z,23.11
2018-02-02T02:28:46.829Z,23.10
2018-02-02T02:29:46.758Z,23.11
2018-02-02T02:30:46.720Z,23.14
2018-02-02T02:31:46.690Z,23.06
2018-02-02T02:32:46.657Z,23.10
2018-02-02T02:33:46.650Z,23.11
2018-02-02T02:34:46.585Z,23.11
2018-02-02T02:35:46.554Z,23.10
2018-02-02T02:36:46.521Z,23.10
2018-02-02T02:37:46.482Z,23.10
2018-02-02T02:38:46.479Z,23.10
2018-02-02T02:39:46.414Z,23.08
2018-02-02T02:40:46.388Z,23.08
2018-02-02T02:41:46.347Z,23.10
2018-02-02T02:42:46.317Z,23.10
2018-02-02T02:43:46.283Z,23.13
2018-02-02T02:44:46.278Z,23.13
2018-02-02T02:45:46.217Z,23.10
2018-02-02T02:46:46.182Z,23.11
2018-02-02T02:47:46.144Z,23.10
2018-02-02T02:48:46.134Z,23.04
2018-02-02T02:49:46.076Z,23.10
2018-02-02T02:50:46.041Z,23.11
2018-02-02T02:51:46.009Z,23.13
2018-02-02T02:52:45.975Z,23.14
2018-02-02T02:53:45.943Z,23.10
2018-02-02T02:54:45.926Z,23.11
2018-02-02T02:55:45.872Z,23.08
2018-02-02T02:56:45.842Z,23.11
2018-02-02T02:57:45.807Z,23.11
2018-02-02T02:58:45.772Z,23.08
2018-02-02T02:59:45.740Z,23.07
2018-02-02T03:00:45.723Z,23.10
2018-02-02T03:01:45.667Z,23.10
2018-02-02T03:02:45.633Z,23.10
2018-02-02T03:03:45.603Z,23.13
2018-02-02T03:04:45.569Z,23.08
2018-02-02T03:05:45.530Z,23.10
2018-02-02T03:06:45.530Z,23.13
2018-02-02T03:07:45.463Z,23.11
2018-02-02T03:08:45.434Z,23.07
2018-02-02T03:09:45.426Z,23.10
2018-02-02T03:10:45.366Z,23.08
2018-02-02T03:11:45.327Z,23.11
2018-02-02T03:12:45.302Z,23.08
2018-02-02T03:13:45.262Z,23.07
2018-02-02T03:14:45.257Z,23.13
2018-02-02T03:15:45.191Z,23.07
2018-02-02T03:16:45.158Z,23.08
2018-02-02T03:17:45.124Z,23.08
2018-02-02T03:18:45.090Z,23.10
2018-02-02T03:19:45.056Z,23.10
2018-02-02T03:20:45.057Z,23.10
2018-02-02T03:21:44.988Z,23.08
2018-02-02T03:22:44.957Z,23.13
2018-02-02T03:23:44.921Z,23.13
2018-02-02T03:24:44.889Z,23.13
2018-02-02T03:25:44.883Z,23.10
2018-02-02T03:26:44.820Z,23.08
2018-02-02T03:27:44.788Z,23.11
2018-02-02T03:28:44.752Z,23.13
2018-02-02T03:29:44.715Z,23.13
2018-02-02T03:30:44.706Z,23.10
2018-02-02T03:31:44.653Z,23.11
2018-02-02T03:32:44.612Z,23.08
2018-02-02T03:33:44.585Z,23.11
2018-02-02T03:34:44.544Z,23.13
2018-02-02T03:35:44.514Z,23.13
2018-02-02T03:36:44.509Z,23.10
2018-02-02T03:37:44.446Z,23.10
2018-02-02T03:38:44.414Z,23.13
2018-02-02T03:39:44.375Z,23.11
2018-02-02T03:40:44.343Z,23.11
2018-02-02T03:41:44.338Z,23.14
2018-02-02T03:42:44.274Z,23.10
2018-02-02T03:43:44.238Z,23.13
2018-02-02T03:44:44.210Z,23.11
2018-02-02T03:45:44.171Z,23.13
2018-02-02T03:46:44.171Z,23.11
2018-02-02T03:47:44.107Z,23.10
2018-02-02T03:48:44.072Z,23.10
2018-02-02T03:49:44.038Z,23.14
2018-02-02T03:50:44.006Z,23.10
2018-02-02T03:51:43.998Z,23.11
2018-02-02T03:52:43.933Z,23.17
2018-02-02T03:53:43.900Z,23.13
2018-02-02T03:54:43.865Z,23.14
2018-02-02T03:55:43.837Z,23.10
2018-02-02T03:56:43.798Z,23.11
2018-02-02T03:57:43.796Z,23.10
2018-02-02T03:58:43.729Z,23.11
2018-02-02T03:59:43.700Z,23.14
2018-02-02T04:00:43.665Z,23.10
2018-02-02T04:01:43.629Z,23.10
2018-02-02T04:02:43.598Z,23.10
2018-02-02T04:03:43.592Z,23.10
2018-02-02T04:04:43.526Z,23.17
2018-02-02T04:05:43.492Z,23.11
2018-02-02T04:06:43.461Z,23.13
2018-02-02T04:07:43.459Z,23.13
2018-02-02T04:08:43.392Z,23.18
2018-02-02T04:09:43.359Z,23.14
2018-02-02T04:10:43.324Z,23.17
2018-02-02T04:11:43.294Z,23.16
2018-02-02T04:12:43.288Z,23.17
2018-02-02T04:13:43.224Z,23.14
2018-02-02T04:14:43.187Z,23.13
2018-02-02T04:15:43.156Z,23.18
2018-02-02T04:16:43.124Z,23.16
2018-02-02T04:17:43.085Z,23.18
2018-02-02T04:18:43.086Z,23.13
2018-02-02T04:19:43.020Z,23.17
2018-02-02T04:20:42.988Z,23.17
2018-02-02T04:21:42.948Z,23.21
2018-02-02T04:22:42.916Z,23.14
2018-02-02T04:23:42.925Z,23.18
2018-02-02T04:24:42.847Z,23.14
2018-02-02T04:25:42.813Z,23.21
2018-02-02T04:26:42.778Z,23.21
2018-02-02T04:27:42.749Z,23.11
2018-02-02T04:28:42.715Z,23.14
2018-02-02T04:29:42.710Z,23.16
2018-02-02T04:30:42.644Z,23.18
2018-02-02T04:31:42.610Z,23.25
2018-02-02T04:32:42.580Z,23.20
2018-02-02T04:33:42.542Z,23.18
2018-02-02T04:34:42.821Z,23.17
2018-02-02T04:35:42.474Z,23.23
2018-02-02T04:36:42.447Z,23.16
2018-02-02T04:37:42.406Z,23.23
2018-02-02T04:38:42.379Z,23.23
2018-02-02T04:39:42.368Z,23.23
2018-02-02T04:40:42.309Z,23.20
2018-02-02T04:41:42.269Z,23.20
2018-02-02T04:42:42.243Z,23.25
2018-02-02T04:43:42.206Z,23.25
2018-02-02T04:44:42.195Z,23.18
2018-02-02T04:45:42.139Z,23.23
2018-02-02T04:46:42.102Z,23.23
2018-02-02T04:47:42.067Z,23.18
2018-02-02T04:48:42.039Z,23.21
2018-02-02T04:49:42.002Z,23.25
2018-02-02T04:50:41.997Z,23.23
2018-02-02T04:51:41.931Z,23.23
2018-02-02T04:52:41.903Z,23.28
2018-02-02T04:53:41.864Z,23.23
2018-02-02T04:54:41.940Z,23.29
2018-02-02T04:55:41.796Z,23.25
2018-02-02T04:56:41.766Z,23.23
2018-02-02T04:57:41.733Z,23.28
2018-02-02T04:58:41.698Z,23.17
2018-02-02T04:59:41.671Z,23.28
2018-02-02T05:00:41.657Z,23.34
2018-02-02T05:01:41.594Z,23.34
2018-02-02T05:02:41.559Z,23.21
2018-02-02T05:03:41.527Z,23.21
2018-02-02T05:04:41.519Z,23.34
2018-02-02T05:05:41.462Z,23.29
2018-02-02T05:06:41.428Z,23.26
2018-02-02T05:07:41.393Z,23.29
2018-02-02T05:08:41.364Z,23.26
2018-02-02T05:09:41.357Z,23.32
2018-02-02T05:10:41.288Z,23.29
2018-02-02T05:11:41.255Z,23.28
2018-02-02T05:12:41.221Z,23.32
2018-02-02T05:13:41.192Z,23.33
2018-02-02T05:14:41.177Z,23.28
2018-02-02T05:15:41.118Z,23.26
2018-02-02T05:16:41.090Z,23.28
2018-02-02T05:17:41.050Z,23.29
2018-02-02T05:18:41.017Z,23.34
2018-02-02T05:19:40.985Z,23.29
2018-02-02T05:20:41.773Z,23.32
2018-02-02T05:21:40.920Z,23.33
2018-02-02T05:22:40.887Z,23.37
2018-02-02T05:23:40.856Z,23.32
2018-02-02T05:24:40.818Z,23.33
2018-02-02T05:25:40.786Z,23.39
2018-02-02T05:26:40.770Z,23.34
2018-02-02T05:27:40.718Z,23.32
2018-02-02T05:28:40.682Z,23.32
2018-02-02T05:29:40.648Z,23.33
2018-02-02T05:30:40.612Z,23.32
2018-02-02T05:31:40.578Z,23.37
2018-02-02T05:32:40.838Z,23.34
2018-02-02T05:33:40.513Z,23.39
2018-02-02T05:34:40.481Z,23.34
2018-02-02T05:35:40.479Z,23.34
2018-02-02T05:36:40.410Z,23.33
2018-02-02T05:37:40.378Z,23.32
2018-02-02T05:38:40.341Z,23.34
2018-02-02T05:39:40.311Z,23.37
2018-02-02T05:40:40.278Z,23.39
2018-02-02T05:41:40.260Z,23.33
2018-02-02T05:42:40.206Z,23.34
2018-02-02T05:43:40.178Z,23.36
2018-02-02T05:44:40.141Z,23.36
2018-02-02T05:45:40.105Z,23.39
2018-02-02T05:46:40.074Z,23.36
2018-02-02T05:47:40.067Z,23.37
2018-02-02T05:48:40.003Z,23.40
2018-02-02T05:49:39.973Z,23.42
2018-02-02T05:50:39.939Z,23.39
2018-02-02T05:51:39.924Z,23.37
2018-02-02T05:52:39.872Z,23.37
2018-02-02T05:53:39.835Z,23.33
2018-02-02T05:54:39.799Z,23.36
2018-02-02T05:55:39.771Z,23.40
2018-02-02T05:56:39.735Z,23.37
2018-02-02T05:57:39.735Z,23.29
2018-02-02T05:58:39.674Z,23.40
2018-02-02T05:59:39.635Z,23.37
2018-02-02T06:00:39.598Z,23.34
2018-02-02T06:01:39.676Z,23.37
2018-02-02T06:02:39.531Z,23.34
2018-02-02T06:03:39.496Z,23.34
2018-02-02T06:04:39.463Z,23.39
2018-02-02T06:05:39.428Z,23.39
2018-02-02T06:06:39.403Z,23.37
2018-02-02T06:07:39.394Z,23.37
2018-02-02T06:08:39.329Z,23.36
2018-02-02T06:09:39.297Z,23.34
2018-02-02T06:10:39.265Z,23.40
2018-02-02T06:11:39.227Z,23.40
2018-02-02T06:12:39.225Z,23.39
2018-02-02T06:13:39.162Z,23.33
2018-02-02T06:14:39.125Z,23.36
2018-02-02T06:15:39.092Z,23.36
2018-02-02T06:16:39.061Z,23.40
2018-02-02T06:17:39.053Z,23.34
2018-02-02T06:18:38.990Z,23.34
2018-02-02T06:19:38.957Z,23.44
2018-02-02T06:20:38.922Z,23.34
2018-02-02T06:21:38.893Z,23.47
2018-02-02T06:22:38.853Z,23.37
2018-02-02T06:23:38.853Z,23.33
2018-02-02T06:24:38.788Z,23.34
2018-02-02T06:25:38.757Z,23.36
2018-02-02T06:26:38.719Z,23.36
2018-02-02T06:27:38.710Z,23.34
2018-02-02T06:28:38.656Z,23.44
2018-02-02T06:29:38.622Z,23.39
2018-02-02T06:30:38.585Z,23.39
2018-02-02T06:31:38.551Z,23.51
2018-02-02T06:32:38.524Z,23.48
2018-02-02T06:33:38.512Z,23.48
2018-02-02T06:34:38.453Z,23.45
2018-02-02T06:35:38.416Z,23.51
2018-02-02T06:36:38.384Z,23.48
2018-02-02T06:37:38.348Z,23.48
2018-02-02T06:38:38.345Z,23.52
2018-02-02T06:39:38.281Z,23.52
2018-02-02T06:40:38.253Z,23.49
2018-02-02T06:41:38.213Z,23.54
2018-02-02T06:42:38.181Z,23.52
2018-02-02T06:43:38.150Z,23.51
2018-02-02T06:44:38.148Z,23.54
2018-02-02T06:45:38.078Z,23.51
2018-02-02T06:46:38.050Z,23.49
2018-02-02T06:47:38.017Z,23.52
2018-02-02T06:48:38.013Z,23.47
2018-02-02T06:49:37.951Z,23.52
2018-02-02T06:50:37.914Z,23.49
2018-02-02T06:51:37.878Z,23.44
2018-02-02T06:52:37.847Z,23.49
2018-02-02T06:53:37.837Z,23.54
2018-02-02T06:54:37.775Z,23.47
2018-02-02T06:55:37.747Z,23.51
2018-02-02T06:56:37.708Z,23.51
2018-02-02T06:57:37.681Z,23.52
2018-02-02T06:58:37.645Z,23.49
2018-02-02T06:59:37.643Z,23.49
2018-02-02T07:00:37.573Z,23.55
2018-02-02T07:01:37.542Z,23.59
2018-02-02T07:02:37.506Z,23.51
2018-02-02T07:03:37.501Z,23.54
2018-02-02T07:04:37.444Z,23.52
2018-02-02T07:05:37.404Z,23.48
2018-02-02T07:06:37.372Z,23.55
2018-02-02T07:07:37.337Z,23.54
2018-02-02T07:08:37.343Z,23.47
2018-02-02T07:09:37.269Z,23.51
2018-02-02T07:10:37.242Z,23.51
2018-02-02T07:11:37.206Z,23.56
2018-02-02T07:12:37.189Z,23.63
2018-02-02T07:13:37.139Z,23.56
2018-02-02T07:14:37.139Z,23.62
2018-02-02T07:15:37.072Z,23.63
2018-02-02T07:16:37.040Z,23.62
2018-02-02T07:17:37.001Z,23.63
2018-02-02T07:18:36.972Z,23.59
2018-02-02T07:19:36.939Z,23.58
2018-02-02T07:20:36.928Z,23.56
2018-02-02T07:21:36.868Z,23.52
2018-02-02T07:22:36.836Z,23.63
2018-02-02T07:23:36.800Z,23.55
2018-02-02T07:24:36.788Z,23.55
2018-02-02T07:25:36.735Z,23.58
2018-02-02T07:26:36.849Z,23.56
2018-02-02T07:27:36.668Z,23.52
2018-02-02T07:28:36.636Z,23.59
2018-02-02T07:29:36.622Z,23.59
2018-02-02T07:30:36.564Z,23.55
2018-02-02T07:31:36.533Z,23.62
2018-02-02T07:32:36.498Z,23.56
2018-02-02T07:33:36.465Z,23.56
2018-02-02T07:34:36.434Z,23.56
2018-02-02T07:35:36.434Z,23.56
2018-02-02T07:36:36.361Z,23.56
2018-02-02T07:37:36.338Z,23.58
2018-02-02T07:38:36.293Z,23.63
2018-02-02T07:39:36.262Z,23.58
2018-02-02T07:40:36.227Z,23.64
2018-02-02T07:41:36.229Z,23.56
2018-02-02T07:42:36.159Z,23.62
2018-02-02T07:43:36.127Z,23.63
2018-02-02T07:44:36.097Z,23.54
2018-02-02T07:45:36.099Z,23.56
2018-02-02T07:46:36.024Z,23.62
2018-02-02T07:47:35.992Z,23.66
2018-02-02T07:48:35.960Z,23.63
2018-02-02T07:49:35.924Z,23.58
2018-02-02T07:50:35.890Z,23.58
2018-02-02T07:51:35.893Z,23.67
2018-02-02T07:52:35.828Z,23.70
2018-02-02T07:53:35.790Z,23.64
2018-02-02T07:54:35.760Z,23.66
2018-02-02T07:55:35.722Z,23.69
2018-02-02T07:56:35.692Z,23.64
2018-02-02T07:57:35.857Z,23.67
2018-02-02T07:58:35.622Z,23.67
2018-02-02T07:59:35.591Z,23.64
2018-02-02T08:00:35.595Z,23.64
2018-02-02T08:01:35.524Z,23.66
2018-02-02T08:02:35.488Z,23.63
2018-02-02T08:03:35.456Z,23.62
2018-02-02T08:04:35.425Z,23.74
2018-02-02T08:05:35.385Z,23.63
2018-02-02T08:06:35.690Z,23.64
2018-02-02T08:07:35.319Z,23.70
2018-02-02T08:08:35.289Z,23.66
2018-02-02T08:09:35.255Z,23.76
2018-02-02T08:10:35.220Z,23.69
2018-02-02T08:11:35.186Z,23.67
2018-02-02T08:12:35.185Z,23.67
2018-02-02T08:13:35.118Z,23.69
2018-02-02T08:14:35.083Z,23.64
2018-02-02T08:15:35.055Z,23.73
2018-02-02T08:16:35.051Z,23.73
2018-02-02T08:17:34.990Z,23.79
2018-02-02T08:18:34.951Z,23.69
2018-02-02T08:19:34.916Z,23.76
2018-02-02T08:20:34.882Z,23.74
2018-02-02T08:21:35.065Z,23.73
2018-02-02T08:22:34.818Z,23.74
2018-02-02T08:23:34.787Z,23.82
2018-02-02T08:24:34.748Z,23.84
2018-02-02T08:25:34.713Z,23.73
2018-02-02T08:26:34.713Z,23.67
2018-02-02T08:27:34.646Z,23.76
2018-02-02T08:28:34.619Z,23.71
2018-02-02T08:29:34.582Z,23.77
2018-02-02T08:30:34.546Z,23.74
2018-02-02T08:31:34.543Z,23.79
2018-02-02T08:32:34.493Z,23.76
2018-02-02T08:33:34.446Z,23.79
2018-02-02T08:34:34.416Z,23.77
2018-02-02T08:35:34.378Z,23.77
2018-02-02T08:36:34.350Z,23.77
2018-02-02T08:37:34.339Z,23.77
2018-02-02T08:38:34.278Z,23.76
2018-02-02T08:39:34.245Z,23.77
2018-02-02T08:40:34.210Z,23.73
2018-02-02T08:41:34.177Z,23.81
2018-02-02T08:42:34.146Z,23.81
2018-02-02T08:43:34.136Z,23.81
2018-02-02T08:44:34.077Z,23.81
2018-02-02T08:45:34.046Z,23.79
2018-02-02T08:46:34.013Z,23.84
2018-02-02T08:47:33.976Z,23.82
2018-02-02T08:48:33.944Z,23.85
2018-02-02T08:49:33.944Z,23.85
2018-02-02T08:50:33.876Z,23.88
2018-02-02T08:51:33.877Z,23.85
2018-02-02T08:52:33.808Z,23.85
2018-02-02T08:53:33.778Z,23.88
2018-02-02T08:54:33.741Z,23.85
2018-02-02T08:55:33.711Z,23.88
2018-02-02T08:56:33.708Z,23.88
2018-02-02T08:57:33.645Z,23.85
2018-02-02T08:58:33.612Z,23.89
2018-02-02T08:59:33.573Z,23.91
2018-02-02T09:00:33.545Z,23.92
2018-02-02T09:01:33.535Z,23.85
2018-02-02T09:02:33.473Z,23.84
2018-02-02T09:03:33.439Z,23.91
2018-02-02T09:04:33.409Z,23.86
2018-02-02T09:05:33.371Z,23.94
2018-02-02T09:06:33.386Z,23.88
2018-02-02T09:07:33.305Z,23.91
2018-02-02T09:08:33.274Z,23.86
2018-02-02T09:09:33.241Z,23.86
2018-02-02T09:10:33.210Z,23.89
2018-02-02T09:11:33.173Z,23.88
2018-02-02T09:12:33.162Z,23.88
2018-02-02T09:13:33.111Z,23.86
2018-02-02T09:14:33.076Z,23.86
2018-02-02T09:15:33.037Z,23.86
2018-02-02T09:16:33.006Z,23.91
2018-02-02T09:17:32.971Z,23.91
2018-02-02T09:18:32.986Z,23.94
2018-02-02T09:19:32.904Z,23.94
2018-02-02T09:20:32.870Z,23.88
2018-02-02T09:21:32.836Z,23.99
2018-02-02T09:22:32.834Z,23.91
2018-02-02T09:23:32.770Z,23.95
2018-02-02T09:24:32.739Z,23.95
2018-02-02T09:25:32.709Z,23.92
2018-02-02T09:26:32.667Z,23.88
2018-02-02T09:27:32.670Z,23.95
2018-02-02T09:28:32.607Z,23.91
2018-02-02T09:29:32.569Z,23.77
2018-02-02T09:30:32.539Z,23.63
2018-02-02T09:31:32.504Z,23.52
2018-02-02T09:32:32.508Z,23.34
2018-02-02T09:33:32.433Z,23.20
2018-02-02T09:34:32.403Z,23.14
2018-02-02T09:35:32.370Z,23.08
2018-02-02T09:36:32.336Z,23.06
2018-02-02T09:37:32.298Z,23.04
2018-02-02T09:38:32.290Z,23.10
2018-02-02T09:39:32.234Z,23.10
2018-02-02T09:40:32.196Z,23.07
2018-02-02T09:41:32.167Z,23.13
2018-02-02T09:42:32.158Z,23.11
2018-02-02T09:43:32.093Z,23.21
2018-02-02T09:44:32.061Z,23.23
2018-02-02T09:45:32.033Z,23.25
2018-02-02T09:46:31.994Z,23.25
2018-02-02T09:47:31.990Z,23.29
2018-02-02T09:48:31.926Z,23.26
2018-02-02T09:49:31.890Z,23.32
2018-02-02T09:50:31.857Z,23.33
2018-02-02T09:51:31.827Z,23.34
2018-02-02T09:52:31.825Z,23.39
2018-02-02T09:53:31.757Z,23.45
2018-02-02T09:54:31.722Z,23.42
2018-02-02T09:55:31.688Z,23.40
2018-02-02T09:56:31.658Z,23.42
2018-02-02T09:57:31.644Z,23.39
2018-02-02T09:58:31.594Z,23.48
2018-02-02T09:59:31.557Z,23.51
2018-02-02T10:00:31.520Z,23.44
2018-02-02T10:01:31.489Z,23.48
2018-02-02T10:02:31.455Z,23.56
2018-02-02T10:03:31.445Z,23.56
2018-02-02T10:04:31.383Z,23.55
2018-02-02T10:05:31.357Z,23.51
2018-02-02T10:06:31.317Z,23.58
2018-02-02T10:07:31.283Z,23.63
2018-02-02T10:08:31.248Z,23.62
2018-02-02T10:09:31.620Z,23.62
2018-02-02T10:10:31.184Z,23.62
2018-02-02T10:11:31.152Z,23.69
2018-02-02T10:12:31.113Z,23.64
2018-02-02T10:13:31.114Z,23.73
2018-02-02T10:14:31.076Z,23.64
2018-02-02T10:15:31.015Z,23.66
2018-02-02T10:16:30.986Z,23.66
2018-02-02T10:17:30.950Z,23.66
2018-02-02T10:18:30.917Z,23.67
2018-02-02T10:19:31.387Z,23.77
2018-02-02T10:20:30.846Z,23.64
2018-02-02T10:21:46.078Z,23.71
2018-02-02T10:22:30.780Z,23.70
2018-02-02T10:23:30.743Z,23.82
2018-02-02T10:24:30.716Z,23.74
2018-02-02T10:25:30.697Z,23.77
2018-02-02T10:26:30.643Z,23.70
2018-02-02T10:27:30.613Z,23.77
2018-02-02T10:28:30.581Z,23.76
2018-02-02T10:29:30.542Z,23.76
2018-02-02T10:30:30.509Z,23.77
2018-02-02T10:31:30.511Z,23.84
2018-02-02T10:32:30.447Z,23.79
2018-02-02T10:33:30.408Z,23.79
2018-02-02T10:34:30.403Z,23.73
2018-02-02T10:35:30.342Z,23.82
2018-02-02T10:36:30.306Z,23.81
2018-02-02T10:37:30.275Z,23.76
2018-02-02T10:38:30.243Z,23.81
2018-02-02T10:39:30.244Z,23.82
2018-02-02T10:40:30.174Z,23.82
2018-02-02T10:41:30.139Z,23.81
2018-02-02T10:42:30.108Z,23.82
2018-02-02T10:43:30.076Z,23.81
2018-02-02T10:44:30.041Z,23.86
2018-02-02T10:45:30.043Z,23.77
2018-02-02T10:46:29.974Z,23.85
2018-02-02T10:47:29.941Z,23.88
2018-02-02T10:48:29.904Z,23.89
2018-02-02T10:49:29.869Z,23.85
2018-02-02T10:50:29.837Z,23.86
2018-02-02T10:51:29.831Z,23.84
2018-02-02T10:52:29.771Z,23.86
2018-02-02T10:53:29.740Z,23.82
2018-02-02T10:54:29.706Z,23.86
2018-02-02T10:55:29.672Z,23.86
2018-02-02T10:56:29.636Z,23.85
2018-02-02T10:57:29.635Z,23.86
2018-02-02T10:58:29.573Z,23.88
2018-02-02T10:59:29.535Z,23.89
2018-02-02T11:00:29.560Z,23.86
2018-02-02T11:01:29.470Z,23.85
2018-02-02T11:02:29.439Z,23.86
2018-02-02T11:03:29.405Z,23.88
2018-02-02T11:04:29.367Z,23.91
2018-02-02T11:05:29.334Z,23.84
2018-02-02T11:06:29.333Z,23.88
2018-02-02T11:07:29.267Z,23.86
2018-02-02T11:08:29.237Z,23.85
2018-02-02T11:09:29.199Z,23.86
2018-02-02T11:10:29.169Z,23.88
2018-02-02T11:11:29.167Z,23.88
2018-02-02T11:12:29.103Z,23.91
2018-02-02T11:13:29.070Z,23.85
2018-02-02T11:14:29.031Z,23.91
2018-02-02T11:15:29.002Z,23.94
2018-02-02T11:16:28.968Z,23.91
2018-02-02T11:17:28.964Z,23.91
2018-02-02T11:18:28.899Z,23.94
2018-02-02T11:19:28.864Z,24.01
2018-02-02T11:20:28.833Z,24.01
2018-02-02T11:21:28.797Z,23.99
2018-02-02T11:22:28.820Z,23.95
2018-02-02T11:23:28.731Z,24.03
2018-02-02T11:24:28.704Z,24.00
2018-02-02T11:25:28.665Z,23.95
2018-02-02T11:26:28.635Z,24.03
2018-02-02T11:27:28.596Z,23.96
2018-02-02T11:28:28.594Z,23.96
2018-02-02T11:29:28.529Z,23.96
2018-02-02T11:30:28.500Z,24.03
2018-02-02T11:31:28.466Z,23.96
2018-02-02T11:32:28.850Z,23.94
2018-02-02T11:33:28.399Z,23.92
2018-02-02T11:34:28.366Z,23.96
2018-02-02T11:35:28.329Z,23.96
2018-02-02T11:36:28.295Z,23.94
2018-02-02T11:37:28.268Z,23.99
2018-02-02T11:38:28.260Z,23.95
2018-02-02T11:39:28.196Z,24.01
2018-02-02T11:40:28.166Z,24.03
2018-02-02T11:41:28.132Z,24.10
2018-02-02T11:42:28.099Z,24.03
2018-02-02T11:43:28.093Z,24.06
2018-02-02T11:44:28.028Z,24.07
2018-02-02T11:45:28.000Z,24.10
2018-02-02T11:46:27.960Z,24.09
2018-02-02T11:47:27.934Z,23.96
2018-02-02T11:48:27.895Z,24.10
2018-02-02T11:49:27.896Z,24.06
2018-02-02T11:50:27.826Z,24.03
2018-02-02T11:51:27.795Z,24.11
2018-02-02T11:52:27.761Z,24.04
2018-02-02T11:53:27.748Z,24.04
2018-02-02T11:54:27.699Z,24.04
2018-02-02T11:55:27.663Z,24.04
2018-02-02T11:56:27.629Z,24.06
2018-02-02T11:57:27.590Z,24.03
2018-02-02T11:58:27.562Z,24.16
2018-02-02T11:59:27.554Z,24.10
2018-02-02T12:00:27.492Z,24.21
2018-02-02T12:01:27.460Z,24.09
2018-02-02T12:02:27.455Z,24.16
2018-02-02T12:03:27.393Z,24.18
2018-02-02T12:04:27.361Z,24.11
2018-02-02T12:05:27.323Z,24.21
2018-02-02T12:06:27.296Z,24.18
2018-02-02T12:07:27.282Z,24.10
2018-02-02T12:08:27.228Z,24.16
2018-02-02T12:09:27.191Z,24.18
2018-02-02T12:10:27.157Z,24.13
2018-02-02T12:11:27.125Z,24.14
2018-02-02T12:12:27.094Z,24.16
2018-02-02T12:13:27.402Z,24.24
2018-02-02T12:14:27.023Z,24.14
2018-02-02T12:15:26.992Z,24.21
2018-02-02T12:16:26.966Z,24.19
2018-02-02T12:17:26.928Z,24.16
2018-02-02T12:18:26.922Z,24.21
2018-02-02T12:19:26.858Z,24.19
2018-02-02T12:20:26.831Z,24.14
2018-02-02T12:21:26.796Z,24.19
2018-02-02T12:22:26.761Z,24.18
2018-02-02T12:23:26.728Z,24.13
2018-02-02T12:24:26.726Z,24.13
2018-02-02T12:25:26.660Z,24.11
2018-02-02T12:26:26.628Z,24.16
2018-02-02T12:27:26.596Z,24.16
2018-02-02T12:28:26.559Z,24.19
2018-02-02T12:29:26.530Z,24.13
2018-02-02T12:30:26.523Z,24.13
2018-02-02T12:31:26.458Z,24.10
2018-02-02T12:32:26.426Z,24.18
2018-02-02T12:33:26.395Z,24.18
2018-02-02T12:34:26.386Z,24.21
2018-02-02T12:35:26.324Z,24.24
2018-02-02T12:36:26.296Z,24.25
2018-02-02T12:37:26.258Z,24.21
2018-02-02T12:38:26.226Z,24.24
2018-02-02T12:39:26.197Z,24.21
2018-02-02T12:40:26.191Z,24.19
2018-02-02T12:41:26.126Z,24.28
2018-02-02T12:42:26.091Z,24.19
2018-02-02T12:43:26.064Z,24.29
2018-02-02T12:44:26.059Z,24.24
2018-02-02T12:45:25.996Z,24.31
2018-02-02T12:46:25.963Z,24.32
2018-02-02T12:47:25.936Z,24.29
2018-02-02T12:48:25.893Z,24.24
2018-02-02T12:49:25.891Z,24.26
2018-02-02T12:50:25.826Z,24.28
2018-02-02T12:51:25.798Z,24.24
2018-02-02T12:52:25.760Z,24.16